Time;durP1;ratioP1;P1;durP2;ratioP2;P2;SDS_P1;SDS_P2;PMS_P1;PMS_P2;Temp;Humidity;BMP_temperature;BMP_pressure;BME280_temperature;BME280_humidity;BME280_pressure;Samples;Min_cycle;Max_cycle;Signal;HPM_P1;HPM_P2
2022/11/10 00:02:25;;;;;;;1.50;0.20;;;21.50;49.10;;;;;;5108219;28;20054;-53
2022/11/10 00:05:12;;;;;;;2.85;0.10;;;21.50;49.20;;;;;;5108256;28;20039;-56
2022/11/10 00:08:01;;;;;;;1.95;0.10;;;21.50;49.20;;;;;;5108064;28;20036;-47
2022/11/10 00:11:00;;;;;;;2.65;0.60;;;21.50;49.30;;;;;;5104770;28;20040;-50
2022/11/10 00:17:01;;;;;;;1.80;0.20;;;21.50;49.40;;;;;;5045102;28;20053;-48
2022/11/10 00:19:47;;;;;;;1.25;0.20;;;21.50;49.40;;;;;;5044915;28;20060;-48
2022/11/10 00:22:33;;;;;;;1.25;0.10;;;21.50;49.50;;;;;;5027262;28;20136;-52
2022/11/10 00:25:18;;;;;;;0.70;0.57;;;21.50;49.50;;;;;;5044686;28;20067;-52
2022/11/10 00:28:04;;;;;;;3.40;0.20;;;21.50;49.50;;;;;;5044824;28;20065;-52
2022/11/10 00:30:49;;;;;;;3.47;0.20;;;21.50;49.50;;;;;;5045431;28;20049;-52
2022/11/10 00:33:38;;;;;;;1.40;0.23;;;21.50;49.50;;;;;;5048446;28;20049;-51
2022/11/10 00:36:24;;;;;;;1.13;0.10;;;21.50;49.50;;;;;;5048421;28;20501;-48
2022/11/10 00:39:11;;;;;;;3.00;0.10;;;21.50;49.60;;;;;;5047942;28;20053;-54
2022/11/10 00:41:57;;;;;;;1.10;0.10;;;21.50;49.60;;;;;;5031898;28;20425;-54
2022/11/10 00:44:43;;;;;;;0.73;0.15;;;21.50;49.60;;;;;;5028533;28;20049;-50
2022/11/10 00:47:28;;;;;;;2.30;0.20;;;21.50;49.60;;;;;;5028508;28;20095;-53
2022/11/10 00:50:15;;;;;;;1.97;0.23;;;21.50;49.50;;;;;;5030611;28;20045;-54
2022/11/10 00:53:01;;;;;;;1.08;0.10;;;21.50;49.50;;;;;;5050637;28;20082;-53
2022/11/10 00:55:47;;;;;;;1.38;0.32;;;21.40;49.40;;;;;;5090980;28;20532;-51
2022/11/10 00:58:33;;;;;;;0.32;0.32;;;21.40;49.20;;;;;;5090688;28;20044;-53
2022/11/10 01:01:22;;;;;;;0.65;0.20;;;21.50;49.20;;;;;;5091047;28;20036;-55
2022/11/10 01:04:08;;;;;;;1.95;0.10;;;21.40;49.00;;;;;;5090936;28;20507;-60
2022/11/10 01:06:55;;;;;;;0.85;0.10;;;21.40;48.90;;;;;;5090386;28;20493;-56
2022/11/10 01:09:41;;;;;;;3.55;0.55;;;21.40;48.90;;;;;;5090589;28;20028;-53
2022/11/10 01:12:28;;;;;;;1.33;0.10;;;21.40;49.00;;;;;;5109200;28;20727;-52
2022/11/10 01:15:14;;;;;;;1.13;0.10;;;21.40;49.00;;;;;;5110948;28;20031;-53
2022/11/10 01:17:59;;;;;;;0.40;0.17;;;21.40;49.00;;;;;;5110874;28;20492;-53
2022/11/10 01:20:50;;;;;;;1.00;0.15;;;21.40;48.90;;;;;;5097467;28;20040;-53
2022/11/10 01:23:36;;;;;;;3.40;0.08;;;21.40;49.00;;;;;;5089870;28;20043;-53
2022/11/10 01:26:22;;;;;;;3.53;0.75;;;21.40;49.00;;;;;;5090588;28;20048;-53
2022/11/10 01:29:08;;;;;;;0.70;0.20;;;21.40;49.00;;;;;;5090159;28;20040;-53
2022/11/10 01:31:53;;;;;;;0.40;0.20;;;21.40;49.00;;;;;;5090153;28;20045;-51
2022/11/10 01:34:38;;;;;;;0.10;0.10;;;21.40;49.20;;;;;;5095135;28;20044;-51
2022/11/10 01:37:24;;;;;;;0.55;0.13;;;21.30;49.30;;;;;;5110155;28;20515;-48
2022/11/10 01:40:12;;;;;;;3.75;0.10;;;21.30;49.00;;;;;;5110480;28;20048;-50
2022/11/10 01:42:59;;;;;;;2.38;0.20;;;21.30;49.10;;;;;;5109550;28;20040;-52
2022/11/10 01:45:46;;;;;;;;;;;21.30;49.20;;;;;;5110504;28;20042;-49
2022/11/10 01:48:35;;;;;;;0.70;0.10;;;21.30;49.20;;;;;;5110178;28;19924;-51
2022/11/10 01:51:24;;;;;;;0.35;0.10;;;21.20;49.30;;;;;;5109738;28;20048;-48
2022/11/10 01:54:13;;;;;;;0.52;0.10;;;21.30;49.30;;;;;;5109954;28;20031;-48
2022/11/10 01:57:04;;;;;;;2.40;0.10;;;21.30;49.30;;;;;;5110069;28;20043;-52
2022/11/10 01:59:50;;;;;;;1.67;0.10;;;21.30;49.30;;;;;;5109789;28;20032;-54
2022/11/10 02:02:41;;;;;;;0.82;0.10;;;21.30;49.30;;;;;;5110035;28;20039;-53
2022/11/10 02:05:27;;;;;;;2.00;0.10;;;21.20;49.30;;;;;;5109561;28;20065;-50
2022/11/10 02:08:15;;;;;;;1.23;0.10;;;21.20;49.40;;;;;;5109923;28;20047;-53
2022/11/10 02:11:01;;;;;;;2.45;0.47;;;21.20;49.40;;;;;;5098352;28;20039;-52
2022/11/10 02:13:49;;;;;;;1.92;0.10;;;21.20;49.40;;;;;;5109698;28;20039;-50
2022/11/10 02:16:35;;;;;;;0.88;0.17;;;21.20;49.50;;;;;;5109628;28;20514;-51
2022/11/10 02:19:22;;;;;;;0.10;0.10;;;21.20;49.40;;;;;;5109618;28;20116;-50
2022/11/10 02:22:09;;;;;;;1.42;0.65;;;21.20;49.50;;;;;;5109457;28;20032;-53
2022/11/10 02:24:55;;;;;;;5.30;0.17;;;21.20;49.60;;;;;;5109379;28;20126;-54
2022/11/10 02:27:41;;;;;;;0.63;0.10;;;21.20;49.60;;;;;;5109538;28;20039;-51
2022/11/10 02:30:26;;;;;;;6.17;0.40;;;21.20;49.80;;;;;;5109421;28;20070;-53
2022/11/10 02:33:12;;;;;;;1.20;0.10;;;21.20;49.80;;;;;;5109352;28;20044;-53
2022/11/10 02:35:57;;;;;;;1.80;0.10;;;21.20;49.80;;;;;;5109128;28;20047;-51
2022/11/10 02:38:44;;;;;;;2.17;0.10;;;21.20;49.80;;;;;;5109235;28;20111;-52
2022/11/10 02:41:30;;;;;;;1.10;0.95;;;21.10;49.70;;;;;;5109224;28;20472;-50
2022/11/10 02:44:15;;;;;;;3.83;0.10;;;21.10;49.80;;;;;;5109511;28;20190;-53
2022/11/10 02:47:01;;;;;;;4.95;0.10;;;21.10;49.80;;;;;;5109075;28;20051;-48
2022/11/10 02:49:46;;;;;;;1.02;0.05;;;21.10;49.80;;;;;;5108818;28;20397;-52
2022/11/10 02:52:32;;;;;;;2.03;0.10;;;21.10;49.70;;;;;;5111758;27;20711;-51
2022/11/10 02:55:19;;;;;;;0.60;0.20;;;21.10;49.80;;;;;;5129427;27;20046;-48
2022/11/10 02:58:06;;;;;;;0.70;0.70;;;21.10;49.80;;;;;;5118435;27;20032;-51
2022/11/10 03:00:51;;;;;;;0.32;0.13;;;21.10;49.90;;;;;;5088863;28;20036;-53
2022/11/10 03:03:37;;;;;;;1.90;0.10;;;21.10;49.90;;;;;;5088300;28;20039;-50
2022/11/10 03:06:22;;;;;;;2.65;0.10;;;21.10;50.00;;;;;;5088610;28;20040;-51
2022/11/10 03:09:08;;;;;;;1.65;0.40;;;21.10;50.00;;;;;;5088338;28;20134;-53
2022/11/10 03:11:54;;;;;;;0.60;0.10;;;21.10;50.00;;;;;;5104151;28;20043;-52
2022/11/10 03:14:40;;;;;;;2.22;0.10;;;21.10;50.10;;;;;;5108612;28;20175;-54
2022/11/10 03:17:26;;;;;;;3.33;0.10;;;21.10;50.10;;;;;;5108531;28;20040;-50
2022/11/10 03:20:11;;;;;;;2.40;0.20;;;21.10;50.10;;;;;;5108481;28;20051;-51
2022/11/10 03:23:01;;;;;;;1.67;0.75;;;21.00;50.00;;;;;;5108604;28;20579;-51
2022/11/10 03:25:47;;;;;;;1.05;0.10;;;21.10;50.10;;;;;;5108349;28;20248;-52
2022/11/10 03:28:34;;;;;;;1.40;0.20;;;21.00;50.10;;;;;;5108430;28;20051;-52
2022/11/10 03:31:20;;;;;;;2.25;0.40;;;21.00;50.10;;;;;;5108620;28;20497;-48
2022/11/10 03:34:06;;;;;;;0.70;0.20;;;21.00;50.10;;;;;;5107607;28;20139;-53
2022/11/10 03:36:51;;;;;;;1.27;0.10;;;21.00;50.80;;;;;;5107699;28;20063;-51
2022/11/10 03:39:37;;;;;;;2.67;1.08;;;21.00;50.20;;;;;;5108289;28;20464;-54
2022/11/10 03:42:23;;;;;;;1.00;0.35;;;21.00;50.20;;;;;;5087838;28;20040;-53
2022/11/10 03:45:11;;;;;;;4.60;0.35;;;21.00;50.20;;;;;;5087908;28;20047;-51
2022/11/10 03:47:56;;;;;;;1.40;0.10;;;21.00;50.30;;;;;;5087456;28;20040;-53
2022/11/10 03:50:42;;;;;;;4.10;0.20;;;21.00;50.30;;;;;;5088262;28;20040;-50
2022/11/10 03:53:27;;;;;;;2.70;0.20;;;21.00;50.30;;;;;;5088092;28;20044;-50
2022/11/10 03:56:13;;;;;;;4.00;0.25;;;21.00;50.40;;;;;;5088112;28;20044;-50
2022/11/10 03:58:59;;;;;;;0.90;0.77;;;21.00;50.40;;;;;;5069706;28;20059;-52
2022/11/10 04:01:46;;;;;;;2.40;0.20;;;21.00;50.40;;;;;;5087563;28;20039;-51
2022/11/10 04:10:38;;;;;;;3.20;0.40;;;20.90;50.30;;;;;;5120941;27;20044;-48
2022/11/10 04:16:27;;;;;;;0.77;0.10;;;20.90;50.40;;;;;;5111535;28;20404;-49
2022/11/10 04:19:14;;;;;;;0.55;0.30;;;20.90;50.40;;;;;;5111910;28;20047;-50
2022/11/10 04:21:59;;;;;;;2.13;0.10;;;20.90;50.30;;;;;;5111884;28;20031;-48
2022/11/10 04:24:45;;;;;;;1.40;0.22;;;20.90;50.50;;;;;;5112027;28;20039;-50
2022/11/10 04:27:30;;;;;;;1.02;0.20;;;20.90;50.50;;;;;;5111885;28;20040;-51
2022/11/10 04:30:16;;;;;;;8.50;0.20;;;20.90;50.50;;;;;;5111298;28;20597;-50
2022/11/10 04:33:01;;;;;;;3.95;0.20;;;20.90;50.50;;;;;;5111658;28;20035;-50
2022/11/10 04:35:48;;;;;;;2.17;0.13;;;20.90;50.50;;;;;;5101995;28;20048;-51
2022/11/10 04:38:34;;;;;;;2.28;0.32;;;20.90;50.60;;;;;;5091009;28;20063;-50
2022/11/10 04:41:19;;;;;;;7.50;0.80;;;20.90;50.70;;;;;;5102741;28;20057;-51
2022/11/10 04:44:05;;;;;;;2.10;0.30;;;20.90;50.70;;;;;;5111360;28;20035;-53
2022/11/10 04:46:51;;;;;;;0.82;0.10;;;20.90;50.70;;;;;;5111641;28;20043;-51
2022/11/10 04:49:37;;;;;;;1.07;0.37;;;20.90;50.70;;;;;;5111394;28;20039;-54
2022/11/10 04:52:24;;;;;;;1.67;0.10;;;20.90;50.60;;;;;;5092546;28;20195;-54
2022/11/10 04:55:09;;;;;;;2.75;0.10;;;20.80;50.60;;;;;;5112981;27;20114;-50
2022/11/10 04:57:55;;;;;;;4.13;0.10;;;20.80;50.70;;;;;;5131541;27;20392;-49
2022/11/10 05:00:41;;;;;;;1.17;0.38;;;20.80;50.70;;;;;;5131126;27;20077;-52
2022/11/10 05:03:27;;;;;;;2.38;0.40;;;20.80;50.60;;;;;;5131279;27;20043;-54
2022/11/10 05:06:13;;;;;;;1.30;0.65;;;20.80;50.60;;;;;;5131286;27;20073;-53
2022/11/10 05:09:00;;;;;;;3.25;0.20;;;20.80;50.60;;;;;;5112778;27;20062;-49
2022/11/10 05:11:45;;;;;;;3.45;0.20;;;20.80;50.60;;;;;;5115445;27;20072;-53
2022/11/10 05:14:31;;;;;;;3.42;0.10;;;20.80;51.00;;;;;;5110417;28;20047;-50
2022/11/10 05:17:16;;;;;;;3.20;0.30;;;20.80;50.60;;;;;;5109852;28;20086;-53
2022/11/10 05:20:02;;;;;;;1.00;0.27;;;20.80;50.60;;;;;;5110704;28;20044;-52
2022/11/10 05:25:50;;;;;;;6.15;0.30;;;20.80;50.60;;;;;;5100190;28;20052;-48
2022/11/10 05:28:37;;;;;;;0.52;0.10;;;20.80;50.50;;;;;;5103030;28;20032;-50
2022/11/10 05:31:22;;;;;;;0.93;0.10;;;20.80;50.50;;;;;;5110294;28;20050;-52
2022/11/10 05:34:08;;;;;;;1.95;0.20;;;20.80;50.50;;;;;;5110171;28;20420;-51
2022/11/10 05:36:53;;;;;;;3.78;0.10;;;20.80;50.50;;;;;;5109992;28;20503;-52
2022/11/10 05:39:39;;;;;;;1.00;0.20;;;20.80;50.40;;;;;;5110183;28;20048;-52
2022/11/10 05:42:26;;;;;;;1.65;0.40;;;20.80;50.40;;;;;;5089784;28;20051;-49
2022/11/10 05:45:11;;;;;;;1.30;0.10;;;20.80;50.40;;;;;;5089765;28;20750;-50
2022/11/10 05:47:57;;;;;;;0.57;0.20;;;20.80;50.40;;;;;;5089908;28;20039;-49
2022/11/10 05:50:43;;;;;;;0.77;0.20;;;20.80;50.40;;;;;;5089632;28;20056;-52
2022/11/10 05:53:28;;;;;;;0.82;0.17;;;20.70;50.40;;;;;;5071601;28;20264;-51
2022/11/10 05:56:14;;;;;;;2.47;0.30;;;20.70;50.40;;;;;;5089708;28;20040;-50
2022/11/10 05:59:01;;;;;;;0.93;0.93;;;20.70;50.40;;;;;;5089138;28;20060;-52
2022/11/10 06:01:46;;;;;;;1.70;0.57;;;20.70;50.30;;;;;;5103574;28;20186;-52
2022/11/10 06:04:32;;;;;;;1.15;0.35;;;20.80;50.30;;;;;;5109838;28;20053;-50
2022/11/10 06:07:17;;;;;;;1.02;0.10;;;20.70;50.20;;;;;;5109788;28;20040;-55
2022/11/10 06:10:04;;;;;;;1.37;0.10;;;20.70;50.20;;;;;;5109745;28;20050;-54
2022/11/10 06:12:50;;;;;;;1.08;0.10;;;20.70;50.20;;;;;;5088683;28;20040;-52
2022/11/10 06:15:37;;;;;;;2.25;0.22;;;20.70;50.10;;;;;;5088894;28;20397;-53
2022/11/10 06:18:23;;;;;;;2.83;0.10;;;20.70;50.10;;;;;;5089037;28;20527;-54
2022/11/10 06:21:09;;;;;;;1.70;0.32;;;20.70;50.10;;;;;;5097992;28;20120;-52
2022/11/10 06:23:54;;;;;;;1.23;0.20;;;20.70;50.00;;;;;;5109244;28;20474;-53
2022/11/10 06:26:40;;;;;;;3.03;0.28;;;20.70;50.10;;;;;;5108889;28;20050;-49
2022/11/10 06:29:25;;;;;;;1.75;0.30;;;20.70;50.00;;;;;;5108761;28;20051;-50
2022/11/10 06:32:12;;;;;;;2.28;0.10;;;20.70;50.00;;;;;;5109241;28;20530;-53
2022/11/10 06:34:57;;;;;;;;;;;20.60;49.90;;;;;;5109461;28;20039;-52
2022/11/10 06:37:43;;;;;;;3.03;0.20;;;20.60;50.00;;;;;;5108910;28;19923;-52
2022/11/10 06:40:29;;;;;;;2.03;0.10;;;20.60;50.10;;;;;;5108697;28;20051;-52
2022/11/10 06:43:14;;;;;;;2.08;0.20;;;20.60;50.00;;;;;;5108939;28;20568;-52
2022/11/10 06:46:00;;;;;;;2.17;0.10;;;20.60;50.00;;;;;;5108515;28;20043;-52
2022/11/10 06:48:46;;;;;;;1.60;0.20;;;20.60;50.00;;;;;;5108950;28;20043;-53
2022/11/10 06:51:32;;;;;;;1.65;0.20;;;20.60;49.90;;;;;;5108705;28;20055;-53
2022/11/10 06:54:17;;;;;;;0.93;0.55;;;20.60;50.00;;;;;;5108491;28;20060;-53
2022/11/10 06:57:03;;;;;;;3.28;0.82;;;20.60;49.90;;;;;;5108112;28;20130;-54
2022/11/10 06:59:48;;;;;;;1.85;0.70;;;20.60;49.90;;;;;;5108641;28;20070;-49
2022/11/10 07:02:34;;;;;;;1.30;0.15;;;20.60;49.90;;;;;;5106960;27;20055;-53
2022/11/10 07:05:21;;;;;;;2.13;0.38;;;20.60;49.90;;;;;;5108396;28;20142;-54
2022/11/10 07:08:08;;;;;;;5.05;0.47;;;20.50;49.80;;;;;;5108604;28;20039;-53
2022/11/10 07:10:55;;;;;;;5.47;0.30;;;20.60;50.00;;;;;;5108055;28;20173;-52
2022/11/10 07:13:41;;;;;;;1.77;1.05;;;20.60;50.00;;;;;;5108476;28;20043;-49
2022/11/10 07:16:26;;;;;;;1.02;0.10;;;20.50;49.80;;;;;;5107971;28;20096;-49
2022/11/10 07:19:11;;;;;;;1.50;0.20;;;20.50;49.80;;;;;;5108082;28;20083;-52
2022/11/10 07:21:58;;;;;;;0.77;0.55;;;20.60;49.90;;;;;;5108280;28;20036;-53
2022/11/10 07:24:44;;;;;;;1.38;0.30;;;20.50;49.80;;;;;;5107892;28;20039;-53
2022/11/10 07:27:30;;;;;;;1.53;0.83;;;20.50;49.80;;;;;;5108246;28;20064;-50
2022/11/10 07:30:15;;;;;;;1.48;0.10;;;20.50;49.80;;;;;;5107647;28;20789;-50
2022/11/10 07:33:02;;;;;;;1.40;0.20;;;20.50;49.80;;;;;;5088018;28;20047;-50
2022/11/10 07:35:53;;;;;;;1.27;0.82;;;20.50;49.90;;;;;;5087894;28;20052;-51
2022/11/10 07:38:41;;;;;;;2.20;1.40;;;20.50;49.90;;;;;;5087443;28;20047;-51
2022/11/10 07:41:26;;;;;;;2.05;1.27;;;20.50;49.90;;;;;;5102306;28;20032;-52
2022/11/10 07:44:12;;;;;;;4.22;0.30;;;20.50;49.80;;;;;;5112523;28;20121;-51
2022/11/10 07:46:57;;;;;;;2.92;0.98;;;20.50;49.90;;;;;;5112064;28;20069;-52
2022/11/10 07:49:43;;;;;;;2.83;0.40;;;20.50;49.80;;;;;;5105184;28;20036;-48
2022/11/10 07:52:28;;;;;;;4.70;0.30;;;20.50;49.80;;;;;;5106226;28;20060;-51
2022/11/10 07:55:15;;;;;;;2.30;0.22;;;20.50;49.80;;;;;;5111894;28;20045;-51
2022/11/10 07:58:01;;;;;;;2.63;0.30;;;20.50;49.80;;;;;;5112081;28;20051;-48
2022/11/10 08:00:47;;;;;;;0.75;0.40;;;20.50;49.80;;;;;;5112181;28;20073;-54
2022/11/10 08:03:33;;;;;;;1.13;0.55;;;20.50;49.80;;;;;;5112294;28;20048;-48
2022/11/10 08:06:18;;;;;;;2.20;0.20;;;20.50;49.80;;;;;;5111959;28;20509;-49
2022/11/10 08:09:04;;;;;;;1.17;0.20;;;20.50;49.80;;;;;;5111609;28;20047;-50
2022/11/10 08:11:51;;;;;;;0.90;0.47;;;20.50;49.80;;;;;;5111607;28;20507;-50
2022/11/10 08:14:37;;;;;;;1.65;0.30;;;20.50;49.80;;;;;;5111926;28;20086;-52
2022/11/10 08:17:22;;;;;;;2.25;0.28;;;20.50;49.80;;;;;;5111410;28;20133;-60
2022/11/10 08:20:09;;;;;;;2.72;0.60;;;20.50;49.60;;;;;;5111065;28;20436;-56
2022/11/10 08:22:59;;;;;;;4.22;0.50;;;20.60;49.80;;;;;;5091200;28;20780;-52
2022/11/10 08:25:45;;;;;;;2.75;0.28;;;20.60;49.80;;;;;;5091637;28;20483;-55
2022/11/10 08:28:32;;;;;;;4.70;0.45;;;20.60;49.90;;;;;;5098408;28;20051;-52
2022/11/10 08:31:18;;;;;;;3.75;0.28;;;20.70;49.90;;;;;;5111524;28;20048;-58
2022/11/10 08:34:04;;;;;;;1.55;0.52;;;20.70;50.00;;;;;;5096301;28;20044;-53
2022/11/10 08:36:53;;;;;;;3.97;0.40;;;20.70;49.90;;;;;;5111302;28;20089;-57
2022/11/10 08:39:39;;;;;;;3.70;0.40;;;20.80;50.00;;;;;;5090875;28;20063;-56
2022/11/10 08:42:25;;;;;;;8.40;0.73;;;20.90;50.00;;;;;;5091267;28;20119;-52
2022/11/10 08:45:13;;;;;;;3.63;0.65;;;20.90;49.80;;;;;;5091031;28;20054;-57
2022/11/10 08:48:00;;;;;;;0.43;0.15;;;21.00;49.60;;;;;;5090783;28;20119;-59
2022/11/10 08:50:48;;;;;;;4.63;0.30;;;21.10;49.50;;;;;;5072732;28;20059;-55
2022/11/10 08:53:34;;;;;;;2.78;0.43;;;21.20;49.30;;;;;;5110877;28;20115;-49
2022/11/10 08:56:19;;;;;;;1.90;0.55;;;21.30;49.70;;;;;;5111236;28;20067;-51
2022/11/10 08:59:05;;;;;;;4.35;0.47;;;21.40;49.00;;;;;;5111396;28;20048;-52
2022/11/10 09:01:52;;;;;;;6.18;0.57;;;21.40;48.80;;;;;;5110857;28;20181;-47
2022/11/10 09:04:38;;;;;;;3.38;0.63;;;21.50;48.70;;;;;;5111057;28;20122;-48
2022/11/10 09:07:23;;;;;;;1.07;0.43;;;21.60;48.60;;;;;;5119158;27;20027;-50
2022/11/10 09:10:10;;;;;;;2.47;0.40;;;21.70;48.50;;;;;;5129521;27;20511;-47
2022/11/10 09:13:00;;;;;;;2.45;0.55;;;21.80;48.20;;;;;;5110766;28;20229;-47
2022/11/10 09:15:46;;;;;;;0.30;0.30;;;22.00;48.00;;;;;;5110681;28;20795;-49
2022/11/10 09:18:33;;;;;;;3.87;0.40;;;22.00;47.80;;;;;;5110345;28;20451;-47
2022/11/10 09:21:18;;;;;;;1.77;0.65;;;22.20;47.70;;;;;;5108177;28;20035;-47
2022/11/10 09:24:05;;;;;;;2.50;0.65;;;22.20;47.40;;;;;;5110519;28;20036;-52
2022/11/10 09:26:50;;;;;;;3.20;0.35;;;22.30;47.20;;;;;;5105026;28;20052;-51
2022/11/10 09:29:36;;;;;;;2.92;0.43;;;22.40;47.10;;;;;;5110622;28;20035;-57
2022/11/10 09:32:21;;;;;;;9.48;1.00;;;22.50;47.00;;;;;;5093662;28;20478;-59
2022/11/10 09:35:09;;;;;;;3.78;0.63;;;22.50;46.80;;;;;;5112656;28;20079;-65
2022/11/10 09:37:54;;;;;;;7.72;0.52;;;22.60;46.70;;;;;;5104136;28;20047;-65
2022/11/10 09:40:50;;;;;;;4.93;0.63;;;22.60;46.50;;;;;;5112984;28;20039;-62
2022/11/10 09:43:41;;;;;;;12.10;1.95;;;22.70;46.40;;;;;;5110568;28;20043;-63
2022/11/10 09:46:29;;;;;;;7.28;0.93;;;22.70;46.60;;;;;;5111554;28;20067;-54
2022/11/10 09:49:30;;;;;;;5.72;0.55;;;22.70;46.80;;;;;;5100967;28;20052;-56
2022/11/10 09:52:19;;;;;;;5.25;0.20;;;22.70;47.20;;;;;;5102150;28;20055;-47
2022/11/10 09:55:18;;;;;;;5.03;0.70;;;22.80;47.70;;;;;;5109893;28;20053;-53
2022/11/10 09:58:04;;;;;;;4.55;0.55;;;22.90;47.90;;;;;;5109969;28;20051;-50
2022/11/10 10:00:57;;;;;;;2.17;0.50;;;23.00;48.00;;;;;;5109889;28;20415;-49
2022/11/10 10:03:48;;;;;;;2.80;0.40;;;23.10;47.90;;;;;;5109011;28;20035;-49
2022/11/10 10:06:42;;;;;;;2.15;0.65;;;23.30;47.90;;;;;;5109799;28;20051;-47
2022/11/10 10:09:36;;;;;;;3.38;0.40;;;23.50;47.80;;;;;;5109827;28;20165;-52
2022/11/10 10:12:40;;;;;;;3.55;0.63;;;23.70;47.70;;;;;;5107192;28;20050;-55
2022/11/10 10:15:34;;;;;;;3.55;0.50;;;23.90;47.50;;;;;;5103657;28;20039;-48
2022/11/10 10:18:28;;;;;;;3.95;1.33;;;24.10;47.40;;;;;;5089069;28;20090;-49
2022/11/10 10:21:30;;;;;;;8.77;1.35;;;24.20;47.00;;;;;;5089180;28;20062;-55
2022/11/10 10:24:20;;;;;;;6.90;0.90;;;24.30;46.40;;;;;;5089000;28;20040;-57
2022/11/10 10:27:15;;;;;;;2.50;0.50;;;24.50;46.50;;;;;;5077496;28;20564;-54
2022/11/10 10:30:01;;;;;;;3.40;0.73;;;24.60;46.30;;;;;;5108968;28;20048;-59
2022/11/10 10:32:47;;;;;;;4.72;1.23;;;24.70;46.30;;;;;;5091154;28;20036;-54
2022/11/10 10:35:33;;;;;;;2.20;0.22;;;24.80;46.30;;;;;;5094744;28;20044;-51
2022/11/10 10:38:21;;;;;;;;;;;24.90;46.30;;;;;;5110648;28;20043;-64
2022/11/10 10:41:12;;;;;;;;;;;24.90;46.30;;;;;;5111116;28;19923;-64
2022/11/10 10:44:01;;;;;;;3.33;0.65;;;24.90;46.20;;;;;;5109714;28;19965;-56
2022/11/10 10:46:49;;;;;;;2.60;0.77;;;25.00;45.80;;;;;;5108615;28;20427;-57
2022/11/10 10:49:35;;;;;;;1.90;0.73;;;25.00;45.40;;;;;;5094664;28;20115;-55
2022/11/10 10:52:23;;;;;;;5.18;0.80;;;25.10;45.20;;;;;;5108269;28;20070;-63
2022/11/10 10:55:13;;;;;;;8.93;0.70;;;25.20;45.10;;;;;;5108453;28;20093;-50
2022/11/10 10:58:00;;;;;;;6.03;1.42;;;25.20;45.10;;;;;;5108359;28;20040;-48
2022/11/10 11:00:48;;;;;;;2.70;0.88;;;25.20;44.90;;;;;;5126766;27;20039;-62
2022/11/10 11:03:42;;;;;;;7.43;1.27;;;25.30;44.90;;;;;;5090521;28;20036;-58
2022/11/10 11:06:29;;;;;;;4.22;1.05;;;25.30;45.20;;;;;;5102134;28;20144;-62
2022/11/10 11:09:17;;;;;;;11.10;1.90;;;25.30;45.30;;;;;;5108996;28;20044;-62
2022/11/10 11:12:05;;;;;;;5.07;1.00;;;25.30;45.40;;;;;;5109106;28;20043;-62
2022/11/10 11:14:52;;;;;;;12.27;2.75;;;25.40;45.40;;;;;;5108358;28;20043;-60
2022/11/10 11:17:40;;;;;;;7.53;1.45;;;25.40;45.40;;;;;;5086481;28;20051;-59
2022/11/10 11:20:32;;;;;;;5.10;2.17;;;25.40;45.30;;;;;;5107737;28;20411;-62
2022/11/10 11:23:37;;;;;;;6.55;0.98;;;25.50;45.40;;;;;;5108130;28;20035;-60
2022/11/10 11:26:33;;;;;;;8.63;1.02;;;25.60;45.30;;;;;;5108156;28;20149;-61
2022/11/10 11:29:42;;;;;;;5.22;1.40;;;25.50;45.20;;;;;;5091930;28;20028;-60
2022/11/10 11:32:49;;;;;;;1.75;0.82;;;25.60;45.10;;;;;;5108008;28;20043;-61
2022/11/10 11:35:45;;;;;;;11.73;2.30;;;25.60;45.10;;;;;;5108543;28;20040;-59
2022/11/10 11:38:32;;;;;;;2.53;1.03;;;25.60;45.00;;;;;;5107786;28;20047;-61
2022/11/10 11:41:34;;;;;;;5.72;2.53;;;25.60;45.10;;;;;;5100939;28;20124;-54
2022/11/10 11:44:31;;;;;;;3.00;2.00;;;25.60;43.80;;;;;;5103461;28;20431;-55
2022/11/10 11:47:30;;;;;;;3.95;2.20;;;25.20;41.90;;;;;;5107944;28;20741;-52
2022/11/10 11:50:26;;;;;;;3.40;3.10;;;24.50;41.30;;;;;;5104006;28;20689;-52
2022/11/10 11:53:31;;;;;;;5.17;2.80;;;23.80;41.90;;;;;;5096963;28;20550;-51
2022/11/10 11:56:24;;;;;;;4.82;3.10;;;23.20;42.70;;;;;;5107417;28;20062;-52
2022/11/10 11:59:27;;;;;;;4.55;2.35;;;22.70;43.40;;;;;;5107693;28;20051;-51
2022/11/10 12:02:33;;;;;;;6.22;2.63;;;22.20;44.10;;;;;;5103590;28;20035;-50
2022/11/10 12:05:30;;;;;;;3.75;2.17;;;21.90;44.90;;;;;;5104204;28;20040;-52
2022/11/10 12:08:26;;;;;;;5.70;2.25;;;21.60;45.60;;;;;;5105786;28;20040;-53
2022/11/10 12:11:21;;;;;;;3.47;1.55;;;21.30;46.00;;;;;;5103159;28;20058;-53
2022/11/10 12:14:16;;;;;;;6.93;1.38;;;21.10;46.70;;;;;;5100543;28;20059;-54
2022/11/10 12:17:10;;;;;;;5.55;0.93;;;20.80;47.20;;;;;;5101056;28;20162;-54
2022/11/10 12:20:03;;;;;;;2.83;1.20;;;20.70;47.90;;;;;;5091189;28;20440;-56
2022/11/10 12:22:55;;;;;;;7.00;1.75;;;20.40;48.30;;;;;;5099754;28;20111;-54
2022/11/10 12:25:48;;;;;;;5.78;1.27;;;20.20;48.80;;;;;;5099399;28;20051;-52
2022/11/10 12:28:39;;;;;;;5.45;1.45;;;20.10;49.40;;;;;;5095131;28;20044;-52
2022/11/10 12:31:27;;;;;;;4.53;0.65;;;20.00;49.70;;;;;;5090886;28;20157;-53
2022/11/10 12:34:25;;;;;;;4.18;0.88;;;20.00;50.00;;;;;;5091241;28;20052;-52
2022/11/10 12:37:17;;;;;;;4.18;0.80;;;19.90;50.10;;;;;;5091242;28;20535;-53
2022/11/10 12:40:05;;;;;;;7.57;1.20;;;19.80;50.40;;;;;;5092167;28;20539;-49
2022/11/10 12:42:59;;;;;;;5.13;0.93;;;19.70;50.70;;;;;;5111479;28;20063;-51
2022/11/10 12:45:48;;;;;;;6.57;2.13;;;19.50;51.00;;;;;;5111416;28;20044;-50
2022/11/10 12:48:41;;;;;;;12.20;2.88;;;19.40;51.30;;;;;;5111526;28;20526;-50
2022/11/10 12:51:33;;;;;;;7.03;2.83;;;19.30;51.70;;;;;;5113904;27;20398;-51
2022/11/10 12:54:20;;;;;;;6.18;3.45;;;19.20;52.00;;;;;;5111317;28;20103;-51
2022/11/10 12:57:11;;;;;;;4.43;1.98;;;19.10;52.20;;;;;;5111175;28;20039;-47
2022/11/10 13:00:01;;;;;;;3.83;1.13;;;19.10;52.60;;;;;;5111208;28;20571;-51
2022/11/10 13:02:47;;;;;;;4.90;1.70;;;19.10;52.70;;;;;;5111082;28;20408;-53
2022/11/10 13:05:37;;;;;;;5.65;0.80;;;19.10;52.80;;;;;;5111170;28;20055;-53
2022/11/10 13:08:34;;;;;;;4.65;1.05;;;19.20;52.80;;;;;;5110691;28;20074;-51
2022/11/10 13:11:22;;;;;;;;;;;19.20;52.70;;;;;;5111624;28;20047;-49
2022/11/10 13:14:22;;;;;;;1.73;0.82;;;19.20;52.40;;;;;;5110537;28;19965;-49
2022/11/10 13:17:10;;;;;;;4.80;1.20;;;19.30;52.70;;;;;;5110644;28;20122;-50
2022/11/10 13:19:58;;;;;;;7.13;1.70;;;19.20;52.70;;;;;;5110901;28;20046;-50
2022/11/10 13:22:43;;;;;;;3.78;0.80;;;19.20;52.80;;;;;;5110817;28;20511;-54
2022/11/10 13:26:04;;;;;;;4.15;1.40;;;19.10;52.90;;;;;;5110849;28;20035;-54
2022/11/10 13:28:58;;;;;;;2.80;0.80;;;19.10;53.00;;;;;;5103773;28;20126;-53
2022/11/10 13:31:52;;;;;;;2.97;0.82;;;19.00;53.30;;;;;;5089933;28;20523;-51
2022/11/10 13:34:39;;;;;;;2.45;0.65;;;18.90;53.60;;;;;;5109660;28;20047;-49
2022/11/10 13:37:49;;;;;;;4.95;1.13;;;18.80;53.70;;;;;;5110577;28;20500;-53
2022/11/10 13:40:39;;;;;;;3.63;0.55;;;18.80;53.90;;;;;;5109795;28;20057;-53
2022/11/10 13:43:27;;;;;;;3.00;0.55;;;18.70;54.00;;;;;;5110370;28;20116;-47
2022/11/10 13:46:13;;;;;;;6.70;0.98;;;18.50;54.00;;;;;;5110221;28;20047;-53
2022/11/10 13:49:24;;;;;;;4.67;0.70;;;18.40;54.30;;;;;;5110210;28;20036;-54
2022/11/10 13:52:16;;;;;;;4.82;1.08;;;18.20;54.60;;;;;;5110004;28;20131;-49
2022/11/10 13:55:40;;;;;;;4.13;0.90;;;18.00;55.20;;;;;;5109923;28;20050;-53
2022/11/10 13:58:30;;;;;;;2.90;1.25;;;17.90;55.60;;;;;;5109981;28;20459;-52
2022/11/10 14:01:29;;;;;;;5.50;1.45;;;17.70;56.20;;;;;;5101061;28;20062;-54
2022/11/10 14:04:38;;;;;;;5.13;0.60;;;17.60;56.70;;;;;;5102825;28;20027;-53
2022/11/10 14:07:29;;;;;;;6.20;0.80;;;17.60;57.00;;;;;;5092875;28;20063;-53
2022/11/10 14:10:19;;;;;;;4.80;1.15;;;17.60;57.00;;;;;;5094831;28;20115;-54
2022/11/10 14:13:12;;;;;;;2.00;0.80;;;17.60;57.00;;;;;;5109347;28;20047;-54
2022/11/10 14:15:59;;;;;;;3.42;0.88;;;17.50;57.20;;;;;;5109153;28;20489;-60
2022/11/10 14:19:04;;;;;;;4.70;0.80;;;17.50;57.50;;;;;;5098302;28;20464;-60
2022/11/10 14:21:53;;;;;;;3.35;0.68;;;17.50;57.70;;;;;;5104711;28;20052;-63
2022/11/10 14:24:52;;;;;;;1.85;0.98;;;17.40;57.80;;;;;;5108271;28;20115;-61
2022/11/10 14:27:38;;;;;;;4.40;0.57;;;17.30;57.90;;;;;;5106167;28;20039;-60
2022/11/10 14:30:24;;;;;;;1.65;0.38;;;17.30;58.00;;;;;;5107245;28;20511;-55
2022/11/10 14:33:12;;;;;;;4.65;0.65;;;17.20;58.00;;;;;;5100780;28;20169;-59
2022/11/10 14:36:00;;;;;;;2.20;0.98;;;17.20;58.20;;;;;;5103540;28;20043;-49
2022/11/10 14:38:47;;;;;;;7.90;1.63;;;17.10;58.90;;;;;;5108926;28;20071;-57
2022/11/10 14:41:34;;;;;;;4.10;0.97;;;17.10;59.20;;;;;;5108763;28;20134;-58
2022/11/10 14:44:24;;;;;;;4.03;0.40;;;17.10;59.20;;;;;;5118951;27;20035;-50
2022/11/10 14:47:15;;;;;;;3.97;0.40;;;17.00;58.80;;;;;;5107049;28;20040;-54
2022/11/10 14:50:14;;;;;;;3.15;0.60;;;17.00;58.90;;;;;;5102847;28;20043;-48
2022/11/10 14:53:02;;;;;;;4.55;0.52;;;16.90;59.00;;;;;;5097392;28;20047;-52
2022/11/10 14:55:51;;;;;;;2.20;0.40;;;16.90;59.20;;;;;;5108654;28;20046;-56